createdAt,value
2022-11-28T00:00:04.396Z,47.1
2022-11-28T00:01:04.284Z,47.2
2022-11-28T00:02:04.435Z,47.2
2022-11-28T00:03:04.365Z,47.2
2022-11-28T00:04:04.626Z,47.2
2022-11-28T00:05:04.288Z,47.2
2022-11-28T00:06:04.317Z,47.3
2022-11-28T00:07:04.295Z,47.3
2022-11-28T00:08:04.475Z,47.4
2022-11-28T00:09:04.231Z,47.4
2022-11-28T00:10:04.330Z,47.4
2022-11-28T00:11:04.208Z,47.4
2022-11-28T00:12:04.215Z,47.4
2022-11-28T00:13:04.190Z,47.4
2022-11-28T00:14:04.233Z,47.4
2022-11-28T00:15:04.178Z,47.5
2022-11-28T00:16:04.234Z,47.4
2022-11-28T00:17:04.174Z,47.5
2022-11-28T00:18:04.203Z,47.5
2022-11-28T00:19:04.181Z,47.6
2022-11-28T00:20:04.285Z,47.6
2022-11-28T00:21:04.188Z,47.6
2022-11-28T00:22:04.199Z,47.7
2022-11-28T00:23:04.187Z,47.7
2022-11-28T00:24:04.212Z,47.7
2022-11-28T00:25:04.185Z,47.7
2022-11-28T00:26:04.242Z,47.8
2022-11-28T00:27:04.458Z,47.8
2022-11-28T00:28:04.229Z,47.8
2022-11-28T00:29:04.197Z,47.8
2022-11-28T00:30:04.225Z,47.8
2022-11-28T00:31:04.282Z,47.8
2022-11-28T00:32:04.309Z,47.9
2022-11-28T00:33:04.206Z,47.9
2022-11-28T00:34:04.216Z,47.9
2022-11-28T00:35:04.205Z,47.9
2022-11-28T00:36:04.199Z,47.9
2022-11-28T00:37:04.199Z,48.0
2022-11-28T00:38:04.246Z,48.0
2022-11-28T00:39:04.199Z,48.0
2022-11-28T00:40:05.372Z,48.0
2022-11-28T00:41:04.218Z,48.0
2022-11-28T00:42:04.232Z,48.0
2022-11-28T00:43:04.203Z,48.1
2022-11-28T00:44:04.270Z,48.1
2022-11-28T00:45:04.216Z,48.1
2022-11-28T00:46:04.325Z,48.1
2022-11-28T00:47:04.209Z,48.1
2022-11-28T00:48:04.229Z,48.1
2022-11-28T00:49:04.260Z,48.2
2022-11-28T00:50:04.242Z,48.2
2022-11-28T00:51:04.215Z,48.2
2022-11-28T00:52:04.237Z,48.2
2022-11-28T00:53:04.212Z,48.3
2022-11-28T00:54:04.234Z,48.3
2022-11-28T00:55:04.232Z,48.3
2022-11-28T00:56:04.225Z,48.3
2022-11-28T00:57:04.197Z,48.4
2022-11-28T00:58:04.232Z,48.5
2022-11-28T00:59:04.213Z,48.6
2022-11-28T01:00:04.239Z,48.7
2022-11-28T01:01:04.255Z,48.8
2022-11-28T01:02:04.317Z,48.8
2022-11-28T01:03:04.211Z,48.9
2022-11-28T01:04:04.243Z,49.0
2022-11-28T01:05:04.218Z,49.0
2022-11-28T01:06:04.226Z,49.0
2022-11-28T01:07:04.260Z,49.0
2022-11-28T01:08:04.243Z,49.1
2022-11-28T01:09:04.242Z,49.1
2022-11-28T01:10:04.245Z,49.1
2022-11-28T01:11:04.206Z,49.1
2022-11-28T01:12:04.237Z,49.2
2022-11-28T01:13:04.239Z,49.2
2022-11-28T01:14:04.238Z,49.2
2022-11-28T01:15:04.202Z,49.2
2022-11-28T01:16:04.275Z,49.2
2022-11-28T01:17:04.216Z,49.2
2022-11-28T01:18:04.276Z,49.2
2022-11-28T01:19:04.232Z,49.2
2022-11-28T01:20:04.250Z,49.2
2022-11-28T01:21:04.256Z,49.2
2022-11-28T01:22:04.234Z,49.2
2022-11-28T01:23:04.214Z,49.3
2022-11-28T01:24:04.248Z,49.3
2022-11-28T01:25:04.216Z,49.3
2022-11-28T01:26:04.237Z,49.4
2022-11-28T01:28:54.421Z,50.7
2022-11-28T01:29:04.377Z,50.3
2022-11-28T01:30:04.149Z,49.6
2022-11-28T01:31:04.139Z,49.6
2022-11-28T01:32:04.155Z,49.6
2022-11-28T01:33:04.164Z,49.6
2022-11-28T01:34:04.163Z,49.6
2022-11-28T01:35:04.125Z,49.6
2022-11-28T01:36:04.149Z,49.5
2022-11-28T01:37:04.122Z,49.5
2022-11-28T01:38:04.145Z,49.6
2022-11-28T01:39:04.317Z,49.6
2022-11-28T01:40:04.303Z,49.6
2022-11-28T01:41:04.122Z,49.6
2022-11-28T01:42:04.148Z,49.6
2022-11-28T01:43:04.216Z,49.6
2022-11-28T01:44:04.156Z,49.7
2022-11-28T01:45:04.144Z,49.8
2022-11-28T01:46:04.156Z,49.7
2022-11-28T01:47:04.162Z,49.7
2022-11-28T01:48:04.158Z,49.7
2022-11-28T01:49:04.114Z,49.7
2022-11-28T01:50:04.164Z,49.8
2022-11-28T01:51:04.235Z,49.7
2022-11-28T01:52:04.170Z,49.7
2022-11-28T01:53:04.126Z,49.7
2022-11-28T01:54:10.925Z,49.9
2022-11-28T01:55:04.581Z,49.8
2022-11-28T01:56:04.587Z,49.8
2022-11-28T01:57:04.593Z,49.8
2022-11-28T01:58:04.588Z,49.9
2022-11-28T01:59:04.571Z,49.9
2022-11-28T02:00:04.638Z,49.9
2022-11-28T02:01:04.621Z,49.9
2022-11-28T02:02:04.630Z,49.9
2022-11-28T02:03:04.575Z,49.9
2022-11-28T02:04:04.612Z,49.9
2022-11-28T02:05:04.563Z,49.9
2022-11-28T02:06:04.612Z,49.9
2022-11-28T02:07:05.177Z,49.9
2022-11-28T02:08:04.602Z,49.9
2022-11-28T02:09:04.578Z,49.9
2022-11-28T02:10:04.645Z,50.0
2022-11-28T02:11:04.558Z,50.0
2022-11-28T02:12:04.618Z,50.0
2022-11-28T02:13:04.573Z,50.0
2022-11-28T02:14:04.605Z,50.0
2022-11-28T02:15:04.566Z,50.0
2022-11-28T02:16:04.678Z,50.1
2022-11-28T02:17:04.564Z,50.1
2022-11-28T02:18:04.596Z,50.1
2022-11-28T02:19:04.596Z,50.1
2022-11-28T02:20:04.612Z,50.1
2022-11-28T02:21:04.583Z,50.2
2022-11-28T02:22:04.714Z,50.1
2022-11-28T02:23:04.662Z,50.1
2022-11-28T02:24:04.597Z,50.1
2022-11-28T02:25:04.641Z,50.2
2022-11-28T02:26:04.614Z,50.2
2022-11-28T02:27:04.648Z,50.2
2022-11-28T02:28:04.771Z,50.2
2022-11-28T02:29:04.573Z,50.3
2022-11-28T02:30:04.610Z,50.3
2022-11-28T02:31:04.597Z,50.3
2022-11-28T02:32:04.600Z,50.3
2022-11-28T02:33:04.587Z,50.3
2022-11-28T02:34:04.638Z,50.3
2022-11-28T02:35:04.574Z,50.3
2022-11-28T02:36:04.621Z,50.3
2022-11-28T02:37:04.579Z,50.3
2022-11-28T02:38:04.620Z,50.3
2022-11-28T02:39:04.579Z,50.4
2022-11-28T02:40:04.632Z,50.3
2022-11-28T02:41:04.589Z,50.3
2022-11-28T02:42:04.611Z,50.4
2022-11-28T02:43:04.584Z,50.4
2022-11-28T02:44:04.734Z,50.4
2022-11-28T02:45:04.578Z,50.4
2022-11-28T02:46:04.627Z,50.4
2022-11-28T02:47:04.635Z,50.4
2022-11-28T02:48:04.606Z,50.4
2022-11-28T02:49:04.583Z,50.4
2022-11-28T02:50:04.704Z,50.4
2022-11-28T02:51:04.576Z,50.4
2022-11-28T02:52:04.730Z,50.5
2022-11-28T02:53:04.582Z,50.5
2022-11-28T02:54:04.610Z,50.5
2022-11-28T02:55:04.581Z,50.5
2022-11-28T02:56:04.614Z,50.5
2022-11-28T02:57:04.569Z,50.5
2022-11-28T02:58:04.651Z,50.5
2022-11-28T02:59:04.576Z,50.5
2022-11-28T03:00:04.639Z,50.5
2022-11-28T03:01:04.656Z,50.5
2022-11-28T03:02:04.634Z,50.6
2022-11-28T03:03:04.631Z,50.5
2022-11-28T03:04:04.640Z,50.6
2022-11-28T03:05:04.576Z,50.6
2022-11-28T03:06:04.667Z,50.6
2022-11-28T03:07:04.590Z,50.6
2022-11-28T03:08:04.604Z,50.6
2022-11-28T03:09:04.576Z,50.6
2022-11-28T03:10:04.664Z,50.6
2022-11-28T03:11:04.581Z,50.6
2022-11-28T03:12:04.606Z,50.6
2022-11-28T03:13:04.573Z,50.6
2022-11-28T03:14:04.625Z,50.6
2022-11-28T03:15:04.584Z,50.6
2022-11-28T03:16:04.706Z,50.6
2022-11-28T03:17:04.588Z,50.7
2022-11-28T03:18:04.619Z,50.6
2022-11-28T03:19:04.571Z,50.7
2022-11-28T03:20:04.619Z,50.7
2022-11-28T03:21:04.584Z,50.7
2022-11-28T03:23:53.990Z,50.7
2022-11-28T03:23:57.947Z,53.1
2022-11-28T03:24:04.613Z,52.7
2022-11-28T03:25:04.594Z,51.0
2022-11-28T03:26:04.621Z,50.8
2022-11-28T03:27:04.590Z,50.8
2022-11-28T03:28:04.672Z,50.8
2022-11-28T03:29:04.596Z,50.8
2022-11-28T03:30:04.608Z,50.7
2022-11-28T03:31:04.673Z,50.7
2022-11-28T03:32:04.610Z,50.8
2022-11-28T03:33:04.596Z,50.7
2022-11-28T03:34:04.654Z,50.8
2022-11-28T03:35:04.594Z,50.8
2022-11-28T03:36:04.623Z,50.8
2022-11-28T03:37:04.592Z,50.8
2022-11-28T03:38:04.620Z,50.9
2022-11-28T03:39:04.585Z,50.8
2022-11-28T03:40:04.648Z,50.9
2022-11-28T03:41:04.584Z,50.9
2022-11-28T03:42:04.653Z,50.8
2022-11-28T03:43:04.597Z,50.8
2022-11-28T03:44:04.615Z,50.8
2022-11-28T03:45:04.584Z,50.8
2022-11-28T03:46:04.674Z,50.8
2022-11-28T03:47:04.802Z,50.8
2022-11-28T03:48:04.821Z,50.8
2022-11-28T03:49:04.607Z,50.8
2022-11-28T03:50:04.662Z,50.8
2022-11-28T03:51:04.587Z,50.8
2022-11-28T03:52:04.655Z,50.8
2022-11-28T03:53:04.597Z,50.9
2022-11-28T03:54:04.639Z,50.9
2022-11-28T03:55:04.595Z,50.9
2022-11-28T03:56:04.661Z,50.9
2022-11-28T03:57:04.696Z,50.9
2022-11-28T03:58:04.668Z,50.9
2022-11-28T03:59:04.615Z,50.9
2022-11-28T04:00:04.641Z,50.9
2022-11-28T04:01:04.669Z,50.9
2022-11-28T04:02:04.618Z,50.9
2022-11-28T04:03:04.657Z,50.9
2022-11-28T04:04:04.677Z,50.9
2022-11-28T04:05:04.610Z,50.9
2022-11-28T04:06:04.649Z,50.9
2022-11-28T04:07:04.625Z,50.9
2022-11-28T04:08:04.651Z,50.9
2022-11-28T04:09:04.601Z,50.9
2022-11-28T04:10:04.624Z,50.9
2022-11-28T04:11:04.608Z,50.9
2022-11-28T04:12:04.619Z,50.9
2022-11-28T04:13:04.632Z,50.9
2022-11-28T04:14:04.619Z,50.9
2022-11-28T04:15:04.624Z,50.9
2022-11-28T04:16:04.655Z,51.0
2022-11-28T04:17:04.599Z,51.0
2022-11-28T04:18:04.646Z,50.9
2022-11-28T04:19:04.673Z,51.0
2022-11-28T04:20:04.633Z,51.0
2022-11-28T04:21:04.605Z,51.0
2022-11-28T04:22:04.623Z,51.0
2022-11-28T04:23:04.603Z,51.0
2022-11-28T04:24:04.623Z,51.0
2022-11-28T04:25:04.634Z,51.0
2022-11-28T04:26:04.644Z,51.0
2022-11-28T04:27:04.596Z,51.1
2022-11-28T04:28:04.627Z,51.0
2022-11-28T04:29:04.598Z,51.0
2022-11-28T04:30:04.637Z,51.0
2022-11-28T04:31:04.637Z,51.0
2022-11-28T04:32:04.700Z,51.0
2022-11-28T04:33:04.599Z,51.0
2022-11-28T04:34:04.643Z,51.0
2022-11-28T04:35:04.658Z,51.0
2022-11-28T04:36:04.618Z,51.1
2022-11-28T04:37:09.563Z,51.1
2022-11-28T04:38:04.637Z,51.1
2022-11-28T04:39:04.606Z,51.1
2022-11-28T04:40:04.642Z,51.1
2022-11-28T04:41:04.609Z,51.1
2022-11-28T04:42:04.636Z,51.1
2022-11-28T04:43:04.634Z,51.1
2022-11-28T04:44:04.625Z,51.1
2022-11-28T04:45:04.627Z,51.1
2022-11-28T04:46:04.643Z,51.1
2022-11-28T04:47:04.632Z,51.1
2022-11-28T04:48:04.639Z,51.2
2022-11-28T04:50:36.986Z,52.6
2022-11-28T04:51:03.739Z,51.6
2022-11-28T04:52:03.694Z,51.4
2022-11-28T04:53:03.726Z,51.3
2022-11-28T04:54:03.726Z,51.2
2022-11-28T04:55:03.726Z,51.1
2022-11-28T04:56:03.712Z,51.1
2022-11-28T04:57:03.734Z,51.0
2022-11-28T04:58:03.704Z,51.0
2022-11-28T04:59:03.748Z,50.8
2022-11-28T05:00:03.744Z,50.7
2022-11-28T05:01:03.807Z,50.5
2022-11-28T05:02:03.742Z,50.4
2022-11-28T05:03:03.728Z,50.2
2022-11-28T05:04:03.710Z,50.1
2022-11-28T05:05:03.725Z,49.9
2022-11-28T05:06:05.653Z,49.8
2022-11-28T05:07:03.811Z,49.7
2022-11-28T05:08:03.777Z,49.5
2022-11-28T05:09:03.740Z,49.3
2022-11-28T05:10:03.719Z,49.1
2022-11-28T05:11:03.800Z,49.0
2022-11-28T05:12:03.871Z,48.8
2022-11-28T05:13:03.754Z,48.6
2022-11-28T05:14:03.828Z,48.5
2022-11-28T05:15:03.874Z,48.3
2022-11-28T05:16:03.874Z,48.2
2022-11-28T05:17:03.846Z,48.1
2022-11-28T05:18:03.861Z,47.9
2022-11-28T05:19:03.877Z,47.7
2022-11-28T05:20:03.864Z,47.6
2022-11-28T05:21:03.850Z,47.5
2022-11-28T05:22:03.709Z,47.4
2022-11-28T05:23:03.753Z,47.3
2022-11-28T05:24:03.739Z,47.2
2022-11-28T05:25:03.783Z,47.0
2022-11-28T05:26:03.717Z,47.0
2022-11-28T05:27:03.728Z,46.9
2022-11-28T05:28:03.708Z,46.8
2022-11-28T05:29:03.745Z,46.6
2022-11-28T05:30:03.745Z,46.5
2022-11-28T05:31:03.733Z,46.4
2022-11-28T05:32:03.802Z,46.2
2022-11-28T05:33:03.735Z,46.1
2022-11-28T05:34:03.722Z,46.1
2022-11-28T05:35:03.752Z,46.2
2022-11-28T05:36:05.470Z,46.1
2022-11-28T05:37:03.744Z,46.0
2022-11-28T05:38:03.708Z,45.9
2022-11-28T05:39:03.741Z,45.7
2022-11-28T05:40:03.715Z,45.7
2022-11-28T05:41:03.746Z,45.5
2022-11-28T05:42:03.810Z,45.5
2022-11-28T05:43:03.735Z,45.4
2022-11-28T05:44:03.743Z,45.4
2022-11-28T05:45:03.751Z,45.3
2022-11-28T05:46:03.807Z,45.2
2022-11-28T05:47:03.751Z,45.2
2022-11-28T05:48:03.750Z,45.2
2022-11-28T05:49:03.761Z,45.1
2022-11-28T05:50:03.729Z,45.1
2022-11-28T05:51:03.763Z,45.1
2022-11-28T05:52:03.723Z,45.1
2022-11-28T05:53:03.774Z,45.2
2022-11-28T05:54:03.774Z,45.1
2022-11-28T05:55:03.745Z,45.0
2022-11-28T05:56:03.725Z,45.0
2022-11-28T05:57:03.776Z,45.0
2022-11-28T05:58:03.747Z,45.0
2022-11-28T05:59:03.738Z,45.0
2022-11-28T06:00:03.753Z,45.0
2022-11-28T06:01:03.767Z,45.1
2022-11-28T06:02:03.802Z,45.1
2022-11-28T06:03:03.755Z,45.1
2022-11-28T06:04:03.780Z,45.2
2022-11-28T06:05:16.538Z,45.2
2022-11-28T06:06:03.771Z,45.6
2022-11-28T06:07:03.766Z,45.4
2022-11-28T06:08:03.818Z,45.4
2022-11-28T06:11:06.512Z,46.8
2022-11-28T06:12:04.494Z,45.9
2022-11-28T06:13:05.050Z,45.8
2022-11-28T06:14:04.389Z,45.9
2022-11-28T06:15:04.318Z,45.9
2022-11-28T06:16:04.266Z,46.0
2022-11-28T06:17:04.236Z,46.1
2022-11-28T06:18:04.242Z,46.1
2022-11-28T06:19:04.210Z,46.2
2022-11-28T06:20:04.257Z,46.3
2022-11-28T06:21:04.221Z,46.3
2022-11-28T06:22:04.256Z,46.2
2022-11-28T06:23:04.288Z,46.2
2022-11-28T06:24:04.227Z,46.2
2022-11-28T06:25:04.236Z,46.3
2022-11-28T06:26:04.246Z,46.3
2022-11-28T06:27:04.234Z,46.3
2022-11-28T06:28:04.252Z,46.3
2022-11-28T06:29:04.245Z,46.4
2022-11-28T06:30:04.243Z,46.4
2022-11-28T06:31:04.216Z,46.4
2022-11-28T06:32:04.292Z,46.5
2022-11-28T06:33:04.217Z,46.6
2022-11-28T06:34:04.264Z,46.6
2022-11-28T06:35:04.256Z,46.7
2022-11-28T06:36:04.258Z,46.7
2022-11-28T06:37:04.218Z,46.7
2022-11-28T06:38:04.248Z,46.8
2022-11-28T06:39:04.222Z,46.8
2022-11-28T06:40:04.235Z,46.9
2022-11-28T06:41:04.255Z,46.9
2022-11-28T06:42:04.247Z,46.9
2022-11-28T06:43:04.223Z,47.0
2022-11-28T06:44:04.262Z,47.0
2022-11-28T06:45:04.218Z,47.0
2022-11-28T06:46:04.295Z,47.1
2022-11-28T06:47:04.254Z,47.1
2022-11-28T06:48:04.386Z,47.1
2022-11-28T06:49:04.226Z,47.1
2022-11-28T06:50:04.246Z,47.2
2022-11-28T06:51:04.220Z,47.3
2022-11-28T06:52:04.250Z,47.4
2022-11-28T06:53:04.257Z,47.4
2022-11-28T06:54:04.264Z,47.5
2022-11-28T06:55:04.228Z,47.6
2022-11-28T06:56:04.243Z,47.7
2022-11-28T06:57:04.219Z,47.7
2022-11-28T06:58:04.252Z,47.7
2022-11-28T06:59:04.266Z,47.8
2022-11-28T07:00:04.250Z,47.8
2022-11-28T07:01:04.292Z,47.9
2022-11-28T07:02:07.434Z,47.9
2022-11-28T07:03:04.230Z,47.9
2022-11-28T07:04:04.255Z,47.9
2022-11-28T07:05:04.290Z,47.8
2022-11-28T07:06:04.251Z,47.8
2022-11-28T07:07:04.256Z,47.7
2022-11-28T07:08:04.289Z,47.7
2022-11-28T07:09:04.264Z,47.6
2022-11-28T07:10:04.248Z,47.5
2022-11-28T07:11:04.266Z,47.4
2022-11-28T07:12:04.248Z,47.4
2022-11-28T07:13:05.700Z,47.3
2022-11-28T07:14:04.249Z,47.3
2022-11-28T07:15:04.233Z,47.2
2022-11-28T07:16:04.267Z,47.1
2022-11-28T07:17:04.311Z,47.1
2022-11-28T07:18:04.271Z,47.0
2022-11-28T07:19:04.238Z,46.9
2022-11-28T07:20:04.267Z,46.8
2022-11-28T07:21:04.238Z,46.7
2022-11-28T07:22:04.305Z,46.7
2022-11-28T07:23:04.263Z,46.6
2022-11-28T07:24:04.308Z,46.5
2022-11-28T07:25:04.250Z,46.5
2022-11-28T07:26:04.276Z,46.5
2022-11-28T07:27:04.226Z,46.4
2022-11-28T07:29:36.956Z,47.7
2022-11-28T07:30:04.506Z,46.8
2022-11-28T07:31:05.221Z,46.6
2022-11-28T07:32:04.584Z,46.5
2022-11-28T07:33:04.472Z,46.5
2022-11-28T07:34:04.498Z,46.5
2022-11-28T07:35:04.521Z,46.5
2022-11-28T07:36:04.519Z,46.5
2022-11-28T07:37:04.507Z,46.6
2022-11-28T07:38:04.524Z,46.6
2022-11-28T07:39:04.486Z,46.6
2022-11-28T07:40:04.513Z,46.6
2022-11-28T07:41:04.506Z,46.6
2022-11-28T07:42:04.509Z,46.6
2022-11-28T07:43:04.521Z,46.6
2022-11-28T07:44:04.558Z,46.7
2022-11-28T07:45:04.484Z,46.7
2022-11-28T07:46:04.587Z,46.8
2022-11-28T07:47:04.613Z,46.9
2022-11-28T07:48:04.528Z,46.9
2022-11-28T07:49:04.739Z,47.0
2022-11-28T07:50:04.512Z,47.0
2022-11-28T07:51:04.486Z,47.0
2022-11-28T07:52:04.504Z,47.1
2022-11-28T07:53:07.351Z,47.1
2022-11-28T07:54:04.520Z,47.2
2022-11-28T07:55:04.496Z,47.2
2022-11-28T07:56:04.521Z,47.3
2022-11-28T07:57:11.850Z,47.3
2022-11-28T07:58:04.537Z,47.3
2022-11-28T07:59:04.538Z,47.3
2022-11-28T08:00:04.516Z,47.3
2022-11-28T08:01:04.511Z,47.3
2022-11-28T08:02:04.579Z,47.4
2022-11-28T08:03:04.496Z,47.4
2022-11-28T08:04:04.598Z,47.4
2022-11-28T08:05:04.548Z,47.4
2022-11-28T08:06:04.519Z,47.4
2022-11-28T08:07:04.492Z,47.4
2022-11-28T08:08:04.577Z,47.4
2022-11-28T08:09:04.494Z,47.4
2022-11-28T08:10:04.518Z,47.3
2022-11-28T08:11:04.530Z,47.3
2022-11-28T08:13:04.498Z,47.2
2022-11-28T08:14:04.523Z,47.2
2022-11-28T08:15:04.497Z,47.1
2022-11-28T08:16:04.513Z,47.1
2022-11-28T08:17:04.606Z,47.0
2022-11-28T08:18:04.512Z,47.0
2022-11-28T08:19:04.502Z,47.0
2022-11-28T08:20:04.531Z,46.9
2022-11-28T08:21:04.500Z,46.9
2022-11-28T08:22:04.536Z,46.8
2022-11-28T08:23:04.520Z,46.8
2022-11-28T08:24:04.535Z,46.8
2022-11-28T08:25:04.511Z,46.7
2022-11-28T08:26:04.534Z,46.7
2022-11-28T08:27:04.488Z,46.7
2022-11-28T08:28:04.533Z,46.7
2022-11-28T08:29:04.535Z,46.7
2022-11-28T08:30:04.531Z,46.7
2022-11-28T08:31:04.591Z,46.7
2022-11-28T08:33:03.394Z,46.7
2022-11-28T08:33:07.354Z,48.6
2022-11-28T08:34:04.525Z,46.9
2022-11-28T08:35:04.541Z,46.8
2022-11-28T08:36:04.534Z,46.7
2022-11-28T08:37:04.498Z,46.7
2022-11-28T08:38:04.517Z,46.7
2022-11-28T08:39:22.971Z,46.7
2022-11-28T08:40:04.530Z,46.8
2022-11-28T08:41:05.164Z,46.8
2022-11-28T08:42:04.528Z,46.8
2022-11-28T08:43:04.495Z,46.8
2022-11-28T08:44:04.531Z,46.9
2022-11-28T08:45:04.503Z,46.9
2022-11-28T08:46:04.560Z,47.0
2022-11-28T08:47:04.524Z,47.0
2022-11-28T08:48:04.530Z,47.1
2022-11-28T08:49:04.905Z,47.2
2022-11-28T08:50:04.528Z,47.2
2022-11-28T08:51:04.510Z,47.2
2022-11-28T08:52:04.552Z,47.3
2022-11-28T08:53:07.769Z,47.3
2022-11-28T08:54:04.562Z,47.3
2022-11-28T08:55:04.667Z,47.3
2022-11-28T08:56:04.533Z,47.3
2022-11-28T08:57:04.511Z,47.4
2022-11-28T08:58:04.582Z,47.4
2022-11-28T08:59:04.562Z,47.4
2022-11-28T09:00:04.549Z,47.4
2022-11-28T09:01:04.579Z,47.5
2022-11-28T09:02:04.548Z,47.4
2022-11-28T09:03:04.521Z,47.5
2022-11-28T09:04:04.601Z,47.4
2022-11-28T09:05:04.561Z,47.4
2022-11-28T09:06:04.531Z,47.3
2022-11-28T09:07:04.515Z,47.2
2022-11-28T09:08:07.785Z,47.2
2022-11-28T09:09:04.527Z,47.2
2022-11-28T09:10:04.544Z,47.2
2022-11-28T09:11:04.564Z,47.1
2022-11-28T09:12:04.540Z,47.1
2022-11-28T09:13:04.501Z,47.0
2022-11-28T09:14:04.538Z,46.9
2022-11-28T09:15:04.516Z,46.9
2022-11-28T09:16:04.528Z,46.8
2022-11-28T09:17:04.591Z,46.8
2022-11-28T09:18:04.540Z,46.7
2022-11-28T09:19:04.550Z,46.7
2022-11-28T09:20:04.520Z,46.6
2022-11-28T09:21:04.537Z,46.6
2022-11-28T09:22:04.517Z,46.6
2022-11-28T09:23:04.579Z,46.5
2022-11-28T09:24:04.504Z,46.5
2022-11-28T09:25:04.554Z,46.5
2022-11-28T09:26:04.525Z,46.5
2022-11-28T09:27:04.542Z,46.5
2022-11-28T09:28:04.526Z,46.5
2022-11-28T09:29:04.596Z,46.5
2022-11-28T09:30:04.513Z,46.5
2022-11-28T09:31:04.633Z,46.5
2022-11-28T09:32:04.518Z,46.5
2022-11-28T09:33:04.560Z,46.5
2022-11-28T09:34:04.528Z,46.5
2022-11-28T09:35:04.596Z,46.6
2022-11-28T09:36:04.524Z,46.6
2022-11-28T09:37:05.121Z,46.6
2022-11-28T09:38:04.539Z,46.6
2022-11-28T09:39:04.551Z,46.6
2022-11-28T09:40:13.031Z,46.7
2022-11-28T09:41:04.576Z,46.8
2022-11-28T09:42:04.542Z,46.8
2022-11-28T09:43:04.570Z,46.9
2022-11-28T09:44:04.531Z,46.9
2022-11-28T09:45:04.551Z,47.0
2022-11-28T09:46:04.592Z,47.0
2022-11-28T09:47:04.574Z,47.1
2022-11-28T09:48:04.519Z,47.1
2022-11-28T09:49:04.539Z,47.2
2022-11-28T09:50:04.527Z,47.2
2022-11-28T09:51:04.551Z,47.3
2022-11-28T09:52:04.576Z,47.3
2022-11-28T09:53:04.613Z,47.3
2022-11-28T09:54:04.547Z,47.4
2022-11-28T09:56:35.693Z,48.7
2022-11-28T09:57:04.430Z,47.9
2022-11-28T09:58:05.097Z,47.7
2022-11-28T09:59:04.509Z,47.6
2022-11-28T10:00:04.443Z,47.5
2022-11-28T10:01:04.454Z,47.5
2022-11-28T10:02:04.422Z,47.5
2022-11-28T10:03:04.446Z,47.4
2022-11-28T10:04:04.505Z,47.3
2022-11-28T10:05:04.508Z,47.3
2022-11-28T10:06:04.435Z,47.2
2022-11-28T10:07:04.453Z,47.2
2022-11-28T10:08:04.516Z,47.1
2022-11-28T10:09:04.443Z,47.1
2022-11-28T10:10:04.431Z,47.0
2022-11-28T10:11:04.475Z,47.0
2022-11-28T10:12:04.442Z,46.9
2022-11-28T10:13:04.455Z,46.9
2022-11-28T10:14:08.702Z,46.8
2022-11-28T10:15:04.482Z,46.8
2022-11-28T10:16:04.429Z,46.7
2022-11-28T10:17:04.553Z,46.6
2022-11-28T10:18:04.422Z,46.6
2022-11-28T10:19:04.457Z,46.5
2022-11-28T10:20:05.460Z,46.5
2022-11-28T10:21:04.467Z,46.5
2022-11-28T10:22:04.422Z,46.4
2022-11-28T10:23:04.489Z,46.4
2022-11-28T10:24:04.423Z,46.4
2022-11-28T10:25:04.458Z,46.4
2022-11-28T10:26:04.441Z,46.4
2022-11-28T10:27:04.477Z,46.4
2022-11-28T10:28:04.424Z,46.4
2022-11-28T10:29:04.481Z,46.4
2022-11-28T10:30:04.434Z,46.4
2022-11-28T10:31:04.519Z,46.4
2022-11-28T10:32:04.433Z,46.4
2022-11-28T10:33:04.456Z,46.5
2022-11-28T10:34:04.434Z,46.5
2022-11-28T10:35:04.503Z,46.5
2022-11-28T10:36:04.437Z,46.5
2022-11-28T10:37:04.469Z,46.5
2022-11-28T10:38:04.473Z,46.6
2022-11-28T10:39:09.842Z,46.7
2022-11-28T10:40:04.432Z,46.7
2022-11-28T10:41:04.459Z,46.8
2022-11-28T10:42:04.676Z,46.8
2022-11-28T10:43:04.469Z,46.9
2022-11-28T10:44:04.459Z,47.0
2022-11-28T10:45:04.492Z,47.0
2022-11-28T10:46:04.492Z,47.1
2022-11-28T10:47:04.474Z,47.1
2022-11-28T10:48:37.316Z,47.2
2022-11-28T10:49:04.462Z,47.7
2022-11-28T10:50:04.471Z,47.4
2022-11-28T10:51:04.472Z,47.4
2022-11-28T10:52:04.458Z,47.4
2022-11-28T10:53:04.471Z,47.4
2022-11-28T10:54:04.443Z,47.4
2022-11-28T10:55:04.458Z,47.4
2022-11-28T10:56:08.410Z,47.4
2022-11-28T10:57:04.477Z,47.5
2022-11-28T10:58:04.431Z,47.5
2022-11-28T10:59:04.485Z,47.5
2022-11-28T11:00:04.436Z,47.5
2022-11-28T11:01:04.487Z,47.5
2022-11-28T11:02:04.546Z,47.4
2022-11-28T11:03:04.455Z,47.3
2022-11-28T11:04:04.492Z,47.3
2022-11-28T11:05:04.496Z,47.3
2022-11-28T11:06:04.459Z,47.2
2022-11-28T11:07:09.132Z,47.1
2022-11-28T11:08:04.528Z,47.1
2022-11-28T11:09:04.446Z,47.1
2022-11-28T11:10:04.465Z,47.0
2022-11-28T11:11:04.428Z,47.0
2022-11-28T11:12:04.475Z,46.9
2022-11-28T11:13:04.442Z,46.8
2022-11-28T11:14:04.493Z,46.7
2022-11-28T11:15:04.440Z,46.6
2022-11-28T11:16:04.560Z,46.5
2022-11-28T11:17:04.447Z,46.5
2022-11-28T11:18:04.471Z,46.4
2022-11-28T11:19:04.439Z,46.4
2022-11-28T11:20:04.513Z,46.3
2022-11-28T11:21:04.443Z,46.3
2022-11-28T11:22:04.477Z,46.3
2022-11-28T11:23:04.437Z,46.3
2022-11-28T11:24:04.487Z,46.3
2022-11-28T11:25:04.453Z,46.3
2022-11-28T11:26:04.504Z,46.3
2022-11-28T11:27:04.457Z,46.3
2022-11-28T11:28:04.471Z,46.3
2022-11-28T11:29:04.435Z,46.3
2022-11-28T11:30:04.524Z,46.3
2022-11-28T11:31:04.460Z,46.3
2022-11-28T11:32:04.521Z,46.4
2022-11-28T11:33:04.476Z,46.4
2022-11-28T11:34:04.470Z,46.4
2022-11-28T11:35:04.460Z,46.4
2022-11-28T11:36:04.464Z,46.4
2022-11-28T11:37:04.461Z,46.5
2022-11-28T11:38:04.509Z,46.5
2022-11-28T11:39:04.448Z,46.5
2022-11-28T11:40:04.488Z,46.6
2022-11-28T11:41:04.471Z,46.7
2022-11-28T11:42:11.196Z,46.9
2022-11-28T11:43:03.948Z,46.8
2022-11-28T11:44:03.931Z,46.9
2022-11-28T11:45:03.921Z,47.0
2022-11-28T11:46:10.693Z,47.1
2022-11-28T11:47:04.338Z,47.1
2022-11-28T11:48:04.393Z,47.1
2022-11-28T11:49:04.341Z,47.2
2022-11-28T11:50:04.400Z,47.2
2022-11-28T11:51:04.363Z,47.3
2022-11-28T11:52:04.331Z,47.2
2022-11-28T11:53:04.383Z,47.4
2022-11-28T11:54:04.345Z,47.4
2022-11-28T11:55:04.367Z,47.4
2022-11-28T11:56:04.376Z,47.5
2022-11-28T11:57:31.274Z,47.5
2022-11-28T11:58:11.079Z,47.8
2022-11-28T11:59:03.801Z,47.6
2022-11-28T12:00:03.780Z,47.5
2022-11-28T12:01:03.800Z,47.4
2022-11-28T12:02:03.806Z,47.3
2022-11-28T12:03:03.940Z,47.3
2022-11-28T12:05:03.876Z,47.2
2022-11-28T12:06:14.065Z,47.1
2022-11-28T12:07:04.053Z,47.2
2022-11-28T12:08:03.866Z,47.1
2022-11-28T12:09:03.816Z,47.0
2022-11-28T12:10:04.914Z,46.9
2022-11-28T12:11:03.814Z,46.9
2022-11-28T12:12:03.783Z,46.8
2022-11-28T12:13:03.862Z,46.7
2022-11-28T12:14:03.794Z,46.6
2022-11-28T12:15:03.826Z,46.5
2022-11-28T12:16:03.881Z,46.4
2022-11-28T12:17:19.462Z,46.4
2022-11-28T12:18:03.893Z,46.6
2022-11-28T12:19:03.811Z,46.3
2022-11-28T12:20:03.783Z,46.3
2022-11-28T12:21:03.813Z,46.2
2022-11-28T12:22:03.811Z,46.2
2022-11-28T12:23:03.803Z,46.1
2022-11-28T12:24:03.827Z,46.1
2022-11-28T12:25:03.815Z,46.1
2022-11-28T12:26:03.804Z,46.1
2022-11-28T12:27:03.831Z,46.1
2022-11-28T12:28:03.791Z,46.1
2022-11-28T12:29:03.821Z,46.1
2022-11-28T12:30:03.814Z,46.1
2022-11-28T12:31:03.831Z,46.1
2022-11-28T12:32:03.815Z,46.2
2022-11-28T12:33:03.811Z,46.2
2022-11-28T12:34:03.997Z,46.2
2022-11-28T12:35:03.817Z,46.2
2022-11-28T12:36:03.816Z,46.2
2022-11-28T12:37:03.816Z,46.3
2022-11-28T12:38:10.841Z,46.3
2022-11-28T12:39:03.888Z,46.3
2022-11-28T12:40:03.837Z,46.4
2022-11-28T12:41:03.812Z,46.4
2022-11-28T12:42:03.814Z,46.5
2022-11-28T12:43:03.806Z,46.5
2022-11-28T12:44:03.789Z,46.6
2022-11-28T12:45:03.891Z,46.7
2022-11-28T12:46:03.878Z,46.8
2022-11-28T12:47:03.822Z,46.8
2022-11-28T12:48:03.823Z,46.9
2022-11-28T12:49:03.833Z,46.9
2022-11-28T12:51:58.512Z,48.4
2022-11-28T12:52:04.361Z,48.4
2022-11-28T12:53:06.356Z,47.5
2022-11-28T12:54:04.355Z,47.4
2022-11-28T12:55:04.233Z,47.4
2022-11-28T12:56:04.190Z,47.4
2022-11-28T12:57:04.240Z,47.4
2022-11-28T12:58:06.869Z,47.4
2022-11-28T12:59:04.358Z,47.4
2022-11-28T13:00:08.675Z,47.4
2022-11-28T13:01:04.286Z,47.4
2022-11-28T13:02:09.620Z,47.3
2022-11-28T13:03:04.235Z,47.3
2022-11-28T13:04:04.273Z,47.2
2022-11-28T13:05:04.254Z,47.2
2022-11-28T13:06:04.253Z,47.1
2022-11-28T13:07:04.210Z,47.0
2022-11-28T13:08:04.227Z,47.0
2022-11-28T13:09:04.201Z,46.9
2022-11-28T13:10:04.365Z,46.9
2022-11-28T13:11:04.264Z,46.9
2022-11-28T13:12:04.273Z,46.8
2022-11-28T13:13:04.224Z,46.8
2022-11-28T13:14:04.263Z,46.7
2022-11-28T13:15:04.210Z,46.6
2022-11-28T13:16:04.344Z,46.6
2022-11-28T13:17:04.236Z,46.6
2022-11-28T13:18:04.278Z,46.5
2022-11-28T13:19:04.217Z,46.5
2022-11-28T13:20:04.236Z,46.4
2022-11-28T13:21:04.249Z,46.4
2022-11-28T13:22:04.247Z,46.4
2022-11-28T13:23:04.273Z,46.4
2022-11-28T13:24:07.329Z,46.3
2022-11-28T13:25:04.329Z,46.4
2022-11-28T13:26:04.270Z,46.4
2022-11-28T13:27:11.101Z,46.5